KCEU/CEU METAR and TAF weather

Enter ICAO airport designator
Station Type Date Time Source
KCEU METAR 2022/12/01 00:54 UTC NOAA

KCEU 010054Z AUTO 28010KT 10SM CLR 10/M07 A3019 RMK AO2 SLP222 T01001072


Station Type Date Time Source
KCEU Decoded METAR 2022/12/01 00:54 UTC NOAA

CLEMSON-OCONEE COUNTY AIRPORT , SC, United States (KCEU) 34-40N 082-53W 268M
Nov 30, 2022 - 07:54 PM EST / 2022.12.01 0054 UTC
Wind: from the W (280 degrees) at 12 MPH (10 KT):0
Visibility: 10 mile(s):0
Sky conditions: clear
Temperature: 50.0 F (10.0 C)
Dew Point: 19.0 F (-7.2 C)
Relative Humidity: 29%
Pressure (altimeter): 30.19 in. Hg (1022 hPa)
ob: KCEU 010054Z AUTO 28010KT 10SM CLR 10/M07 A3019 RMK AO2 SLP222 T01001072
cycle: 1

Station Type Date Time Source
KCEU TAF UTC NOAA

Error!

Example: see airport list